Time;durP1;ratioP1;P1;durP2;ratioP2;P2;SDS_P1;SDS_P2;PMS_P1;PMS_P2;Temp;Humidity;BMP_temperature;BMP_pressure;BME280_temperature;BME280_humidity;BME280_pressure;Samples;Min_cycle;Max_cycle;Signal;HPM_P1;HPM_P2
2022/06/30 00:01:32;;;;;;;;;15.33;15.33;32.30;34.90;;;;;;5036108;28;11445;-65
2022/06/30 00:03:58;;;;;;;;;15.33;15.00;32.40;35.10;;;;;;5035829;28;8829;-65
2022/06/30 00:06:24;;;;;;;;;20.67;18.00;32.30;35.00;;;;;;5035736;28;11472;-65
2022/06/30 00:08:50;;;;;;;;;14.25;14.25;32.20;35.30;;;;;;5047327;28;8899;-67
2022/06/30 00:11:16;;;;;;;;;16.33;16.33;32.20;35.10;;;;;;5037910;28;8798;-66
2022/06/30 00:13:42;;;;;;;;;17.67;16.67;32.20;35.00;;;;;;5035803;28;8780;-68
2022/06/30 00:16:09;;;;;;;;;16.00;16.00;32.20;35.40;;;;;;5035991;28;11480;-64
2022/06/30 00:18:36;;;;;;;;;16.00;16.00;32.20;35.10;;;;;;5035635;28;11484;-65
2022/06/30 00:21:02;;;;;;;;;14.25;12.75;32.20;35.40;;;;;;5035358;28;11520;-67
2022/06/30 00:23:28;;;;;;;;;16.00;16.00;32.20;35.10;;;;;;5035825;28;11473;-65
2022/06/30 00:25:54;;;;;;;;;13.67;13.67;32.10;35.30;;;;;;5035742;28;12151;-67
2022/06/30 00:28:20;;;;;;;;;17.00;17.00;32.10;35.60;;;;;;5034977;28;11472;-65
2022/06/30 00:30:47;;;;;;;;;17.33;15.00;32.10;35.50;;;;;;5035411;28;11489;-65
2022/06/30 00:33:13;;;;;;;;;17.67;17.67;32.20;34.90;;;;;;5035768;28;9503;-66
2022/06/30 00:35:39;;;;;;;;;20.00;18.33;32.10;34.70;;;;;;5035588;28;11480;-65
2022/06/30 00:38:05;;;;;;;;;18.67;18.67;32.00;35.10;;;;;;5035270;28;8794;-67
2022/06/30 00:40:39;;;;;;;;;20.33;20.33;32.00;35.00;;;;;;5035548;28;11556;-65
2022/06/30 00:43:05;;;;;;;;;16.00;14.00;32.00;35.20;;;;;;5035580;28;8773;-65
2022/06/30 00:45:31;;;;;;;;;17.67;17.67;32.00;35.40;;;;;;5035495;28;11464;-65
2022/06/30 00:47:57;;;;;;;;;25.00;21.00;32.00;35.50;;;;;;5035183;28;8781;-67
2022/06/30 00:50:23;;;;;;;;;17.33;17.33;32.00;35.30;;;;;;5035235;28;11522;-65
2022/06/30 00:52:54;;;;;;;;;18.67;17.67;31.80;35.00;;;;;;5035013;28;12471;-65
2022/06/30 00:55:20;;;;;;;;;19.00;19.00;31.70;35.10;;;;;;5035087;28;8786;-65
2022/06/30 00:57:48;;;;;;;;;16.67;16.67;31.70;35.10;;;;;;5035001;28;11500;-65
2022/06/30 01:00:14;;;;;;;;;14.67;14.67;31.80;35.10;;;;;;5035134;28;8802;-65
2022/06/30 01:02:41;;;;;;;;;18.50;18.50;31.70;35.20;;;;;;5034369;28;11450;-64
2022/06/30 01:05:07;;;;;;;;;19.33;19.00;31.80;35.10;;;;;;5038526;28;12151;-64
2022/06/30 01:07:34;;;;;;;;;19.00;19.00;31.80;35.20;;;;;;5041668;28;12227;-65
2022/06/30 01:12:46;;;;;;;;;18.67;18.67;31.90;35.10;;;;;;5034782;28;11435;-65
2022/06/30 01:15:18;;;;;;;;;17.00;17.00;31.90;35.60;;;;;;5034609;28;11607;-64
2022/06/30 01:17:46;;;;;;;;;19.33;18.67;31.90;35.00;;;;;;5034540;28;12203;-66
2022/06/30 01:20:12;;;;;;;;;16.67;15.67;31.80;35.10;;;;;;5034444;28;11509;-64
2022/06/30 01:22:38;;;;;;;;;19.00;18.00;31.70;35.30;;;;;;5034452;28;11461;-65
2022/06/30 01:25:05;;;;;;;;;17.33;17.33;31.70;35.40;;;;;;5034439;28;11480;-65
2022/06/30 01:27:31;;;;;;;;;16.67;15.67;31.60;35.60;;;;;;5034403;28;11470;-65
2022/06/30 01:29:58;;;;;;;;;19.00;17.33;31.60;35.70;;;;;;5034243;28;11455;-64
2022/06/30 01:32:25;;;;;;;;;16.00;16.00;31.50;35.80;;;;;;5034498;28;8766;-64
2022/06/30 01:34:52;;;;;;;;;21.33;19.00;31.60;35.80;;;;;;5034254;28;11477;-65
2022/06/30 01:37:18;;;;;;;;;15.67;15.67;31.50;36.80;;;;;;5034226;28;11452;-66
2022/06/30 01:39:44;;;;;;;;;17.33;17.33;31.50;35.90;;;;;;5034327;28;12144;-65
2022/06/30 01:42:10;;;;;;;;;17.00;17.00;31.50;36.10;;;;;;5034354;28;11476;-65
2022/06/30 01:44:36;;;;;;;;;10.75;10.75;31.50;35.90;;;;;;5034256;28;8746;-65
2022/06/30 01:47:02;;;;;;;;;15.33;15.33;31.40;36.10;;;;;;5035335;28;11466;-65
2022/06/30 01:49:28;;;;;;;;;18.33;18.33;31.20;36.40;;;;;;5042821;28;11485;-65
2022/06/30 01:51:54;;;;;;;;;16.00;16.00;31.40;36.20;;;;;;5033764;28;11588;-65
2022/06/30 01:54:20;;;;;;;;;16.00;16.00;31.30;36.20;;;;;;5034555;28;8909;-65
2022/06/30 01:56:45;;;;;;;;;17.33;17.33;31.10;36.60;;;;;;5033957;28;8778;-66
2022/06/30 01:59:11;;;;;;;;;17.00;17.00;31.20;36.50;;;;;;5033802;28;8849;-67
2022/06/30 02:01:37;;;;;;;;;18.33;18.33;31.30;36.40;;;;;;5033924;28;8766;-65
2022/06/30 02:06:48;;;;;;;;;18.67;17.00;31.30;36.20;;;;;;5053897;28;8780;-65
2022/06/30 02:09:14;;;;;;;;;21.00;19.33;31.20;36.30;;;;;;5053530;28;11493;-64
2022/06/30 02:11:40;;;;;;;;;18.67;17.00;30.90;36.80;;;;;;5053612;28;11450;-66
2022/06/30 02:14:06;;;;;;;;;15.33;15.33;30.80;37.20;;;;;;5053619;28;8765;-65
2022/06/30 02:16:31;;;;;;;;;14.00;14.00;30.90;37.10;;;;;;5053821;28;8760;-66
2022/06/30 02:18:57;;;;;;;;;21.00;21.00;31.10;36.80;;;;;;5053391;28;8931;-65
2022/06/30 02:21:23;;;;;;;;;19.33;19.33;30.90;37.00;;;;;;5052861;28;8848;-65
2022/06/30 02:23:51;;;;;;;;;22.33;21.67;31.00;36.90;;;;;;5053349;28;8788;-65
2022/06/30 02:26:17;;;;;;;;;20.00;20.00;31.00;37.10;;;;;;5053626;28;9476;-66
2022/06/30 02:28:43;;;;;;;;;21.33;21.33;31.00;37.00;;;;;;5053426;28;11471;-65
2022/06/30 02:31:12;;;;;;;;;19.00;19.00;31.00;37.10;;;;;;5053122;28;12257;-65
2022/06/30 02:33:39;;;;;;;;;18.00;17.00;31.00;37.00;;;;;;5053577;28;8965;-66
2022/06/30 02:36:05;;;;;;;;;21.67;21.67;30.80;37.20;;;;;;5053561;28;12143;-64
2022/06/30 02:38:31;;;;;;;;;16.33;16.33;30.90;37.10;;;;;;5053467;28;9504;-65
2022/06/30 02:40:57;;;;;;;;;19.33;17.33;31.10;37.00;;;;;;5053374;28;11452;-65
2022/06/30 02:43:23;;;;;;;;;21.33;21.33;31.10;37.10;;;;;;5053204;28;8830;-66
2022/06/30 02:45:48;;;;;;;;;20.33;20.33;31.10;37.10;;;;;;5053523;28;8775;-64
2022/06/30 02:48:16;;;;;;;;;18.67;18.67;30.80;37.30;;;;;;5053404;28;8768;-65
2022/06/30 02:50:43;;;;;;;;;19.33;19.33;30.90;37.30;;;;;;5053290;28;8804;-65
2022/06/30 02:53:09;;;;;;;;;22.00;21.00;30.90;37.40;;;;;;5039441;28;11562;-65
2022/06/30 02:55:34;;;;;;;;;21.67;20.67;30.90;37.30;;;;;;5057238;28;8772;-65
2022/06/30 02:58:00;;;;;;;;;19.00;18.00;31.00;37.10;;;;;;5057158;28;8776;-65
2022/06/30 03:00:26;;;;;;;;;19.00;19.00;31.10;37.10;;;;;;5057118;28;8776;-64
2022/06/30 03:02:52;;;;;;;;;16.33;16.00;31.10;37.10;;;;;;5057097;28;8780;-66
2022/06/30 03:05:18;;;;;;;;;23.33;23.33;31.10;37.20;;;;;;5057047;28;8800;-65
2022/06/30 03:07:43;;;;;;;;;25.67;25.67;31.10;37.20;;;;;;5057014;28;8760;-64
2022/06/30 03:10:09;;;;;;;;;26.00;24.33;31.10;37.20;;;;;;5056991;28;8902;-65
2022/06/30 03:12:37;;;;;;;;;23.67;23.67;31.20;37.30;;;;;;5057258;28;8780;-64
2022/06/30 03:15:03;;;;;;;;;24.00;24.00;31.10;37.30;;;;;;5057491;28;8788;-66
2022/06/30 03:17:29;;;;;;;;;19.33;19.00;31.00;37.40;;;;;;5056710;28;8784;-65
2022/06/30 03:19:55;;;;;;;;;18.00;18.00;30.70;37.70;;;;;;5056764;28;11482;-65
2022/06/30 03:22:20;;;;;;;;;23.33;21.33;30.80;38.00;;;;;;5056583;28;9521;-64
2022/06/30 03:24:46;;;;;;;;;20.00;20.00;30.80;38.10;;;;;;5056802;28;8767;-65
2022/06/30 03:27:12;;;;;;;;;20.00;19.33;30.80;38.30;;;;;;5056665;28;8772;-65
2022/06/30 03:29:38;;;;;;;;;15.33;15.33;30.80;38.60;;;;;;5056726;28;8776;-64
2022/06/30 03:32:04;;;;;;;;;18.67;18.67;30.80;38.70;;;;;;5056605;28;8768;-65
2022/06/30 03:34:30;;;;;;;;;17.33;17.33;30.90;38.70;;;;;;5056690;28;9866;-65
2022/06/30 03:36:56;;;;;;;;;23.67;23.33;30.90;38.80;;;;;;5056603;28;11476;-64
2022/06/30 03:39:21;;;;;;;;;19.67;19.67;30.90;38.70;;;;;;5048278;28;8809;-64
2022/06/30 03:41:47;;;;;;;;;19.33;19.33;30.70;39.00;;;;;;5043466;28;8791;-65
2022/06/30 03:44:13;;;;;;;;;19.00;17.33;30.60;39.70;;;;;;5036580;28;8771;-65
2022/06/30 03:46:39;;;;;;;;;23.33;23.00;30.60;39.70;;;;;;5036649;28;8775;-65
2022/06/30 03:49:04;;;;;;;;;20.00;20.00;30.60;39.70;;;;;;5036276;28;8869;-66
2022/06/30 03:51:30;;;;;;;;;19.67;19.67;30.40;39.80;;;;;;5036633;28;8904;-64
2022/06/30 03:53:56;;;;;;;;;19.67;18.67;30.50;40.30;;;;;;5036148;28;8844;-66
2022/06/30 03:56:23;;;;;;;;;17.00;17.00;30.40;40.40;;;;;;5036203;28;8758;-65
2022/06/30 03:58:49;;;;;;;;;22.00;21.00;30.50;40.40;;;;;;5036088;28;8813;-66
2022/06/30 04:01:15;;;;;;;;;11.33;11.33;30.40;40.60;;;;;;5036355;28;8766;-66
2022/06/30 04:03:40;;;;;;;;;19.00;19.00;30.50;40.50;;;;;;5035002;28;8864;-66
2022/06/30 04:06:06;;;;;;;;;23.00;23.00;30.60;40.50;;;;;;5036266;28;8766;-67
2022/06/30 04:08:32;;;;;;;;;17.67;17.67;30.50;40.70;;;;;;5035954;28;8873;-66
2022/06/30 04:10:58;;;;;;;;;20.67;20.67;30.50;41.80;;;;;;5035943;28;8872;-65
2022/06/30 04:13:23;;;;;;;;;21.00;21.00;30.60;40.90;;;;;;5035868;28;8852;-67
2022/06/30 04:15:49;;;;;;;;;23.33;22.67;30.60;41.00;;;;;;5035799;28;8774;-66
2022/06/30 04:18:15;;;;;;;;;20.33;20.33;30.60;41.30;;;;;;5035692;28;8802;-65
2022/06/30 04:20:41;;;;;;;;;22.33;21.67;30.30;41.60;;;;;;5035439;28;8849;-69
2022/06/30 04:23:06;;;;;;;;;20.33;20.33;29.90;42.60;;;;;;5035907;28;8786;-67
2022/06/30 04:25:32;;;;;;;;;26.00;24.00;30.10;42.50;;;;;;5035851;28;8786;-64
2022/06/30 04:27:58;;;;;;;;;20.67;20.67;29.90;42.50;;;;;;5035607;28;8807;-65
2022/06/30 04:33:09;;;;;;;;;22.00;21.00;30.20;42.30;;;;;;5035676;28;8782;-65
2022/06/30 04:35:36;;;;;;;;;22.00;21.00;30.30;42.20;;;;;;5035649;28;8774;-65
2022/06/30 04:38:03;;;;;;;;;24.67;24.67;30.40;42.10;;;;;;5035346;28;8774;-65
2022/06/30 04:43:13;;;;;;;;;24.00;23.00;30.50;42.00;;;;;;5035516;28;8758;-65
2022/06/30 04:45:39;;;;;;;;;26.33;25.00;30.60;42.10;;;;;;5035490;28;8781;-64
2022/06/30 04:48:05;;;;;;;;;25.33;24.67;30.60;42.20;;;;;;5035496;28;8777;-64
2022/06/30 04:50:31;;;;;;;;;24.00;24.00;30.70;42.30;;;;;;5035226;28;8810;-67
2022/06/30 04:52:56;;;;;;;;;26.00;26.00;30.60;42.10;;;;;;5035456;28;8777;-66
2022/06/30 04:55:22;;;;;;;;;21.00;21.00;30.70;41.60;;;;;;5035354;28;9202;-68
2022/06/30 04:57:48;;;;;;;;;30.00;29.67;30.70;41.40;;;;;;5035349;28;8912;-68
2022/06/30 05:00:14;;;;;;;;;32.67;30.33;30.50;41.70;;;;;;5035279;28;8798;-66
2022/06/30 05:02:40;;;;;;;;;32.00;28.33;30.40;42.30;;;;;;5035255;28;8778;-67
2022/06/30 05:05:06;;;;;;;;;38.00;34.00;30.40;42.50;;;;;;5034838;28;8804;-66
2022/06/30 05:07:32;;;;;;;;;32.67;28.67;30.50;42.50;;;;;;5034903;28;8790;-69
2022/06/30 05:09:58;;;;;;;;;27.67;27.00;30.40;42.40;;;;;;5035142;28;8774;-69
2022/06/30 05:12:23;;;;;;;;;27.00;27.00;30.60;42.10;;;;;;5034720;28;8763;-68
2022/06/30 05:14:49;;;;;;;;;28.00;28.00;30.70;41.70;;;;;;5034440;28;8810;-69
2022/06/30 05:17:15;;;;;;;;;25.67;24.00;30.40;42.20;;;;;;5034811;28;8913;-66
2022/06/30 05:19:41;;;;;;;;;27.00;27.00;30.50;42.90;;;;;;5034923;28;8798;-67
2022/06/30 05:22:07;;;;;;;;;26.33;26.33;30.50;42.80;;;;;;5034381;28;8911;-68
2022/06/30 05:27:17;;;;;;;;;24.00;24.00;30.70;42.60;;;;;;5034567;28;8742;-68
2022/06/30 05:29:43;;;;;;;;;26.33;26.00;30.70;42.70;;;;;;5034357;28;9434;-66
2022/06/30 05:32:09;;;;;;;;;29.67;28.33;30.80;42.60;;;;;;5034552;28;8794;-68
2022/06/30 05:34:36;;;;;;;;;24.00;23.00;30.80;42.80;;;;;;5034253;28;8782;-66
2022/06/30 05:37:03;;;;;;;;;23.67;23.67;30.90;42.60;;;;;;5034358;28;8774;-67
2022/06/30 05:39:29;;;;;;;;;22.33;22.33;31.10;42.40;;;;;;5034204;28;8806;-67
2022/06/30 05:41:55;;;;;;;;;23.67;23.67;30.90;42.40;;;;;;5017053;28;8778;-68
2022/06/30 05:44:20;;;;;;;;;26.00;26.00;31.00;42.50;;;;;;5034153;28;8778;-67
2022/06/30 05:46:46;;;;;;;;;22.67;22.00;30.90;43.00;;;;;;5034134;28;8789;-66
2022/06/30 05:49:12;;;;;;;;;24.00;24.00;31.10;42.60;;;;;;5034202;28;8797;-65
2022/06/30 05:51:38;;;;;;;;;25.33;25.33;31.10;42.90;;;;;;5034274;28;8798;-67
2022/06/30 05:54:04;;;;;;;;;25.67;25.67;30.90;43.40;;;;;;5033925;28;8789;-66
2022/06/30 05:56:29;;;;;;;;;24.67;23.00;30.70;44.00;;;;;;5034024;28;8782;-65
2022/06/30 05:58:55;;;;;;;;;26.67;26.33;30.80;44.20;;;;;;5034040;28;8816;-67
2022/06/30 06:01:21;;;;;;;;;24.00;24.00;30.90;44.10;;;;;;5034049;28;8766;-66
2022/06/30 06:03:47;;;;;;;;;23.00;23.00;31.00;44.20;;;;;;5033869;28;8770;-66
2022/06/30 06:06:12;;;;;;;;;28.33;28.00;30.90;44.50;;;;;;5033719;28;8872;-65
2022/06/30 06:08:38;;;;;;;;;27.00;27.00;30.40;46.20;;;;;;5033791;28;8805;-66
2022/06/30 06:11:04;;;;;;;;;27.00;25.33;30.60;46.00;;;;;;5033879;28;8808;-67
2022/06/30 06:13:30;;;;;;;;;21.33;21.33;30.60;45.80;;;;;;5033700;28;8770;-67
2022/06/30 06:15:56;;;;;;;;;25.33;25.33;30.80;45.40;;;;;;5033798;28;8758;-68
2022/06/30 06:18:21;;;;;;;;;27.00;26.33;30.80;45.20;;;;;;5032484;28;8846;-64
2022/06/30 06:20:47;;;;;;;;;27.67;26.67;30.90;45.10;;;;;;5033275;28;8860;-66
2022/06/30 06:23:13;;;;;;;;;24.33;24.33;30.90;45.30;;;;;;5033663;28;8794;-68
2022/06/30 06:25:39;;;;;;;;;26.33;23.33;30.40;45.60;;;;;;5033000;28;8762;-66
2022/06/30 06:30:49;;;;;;;;;25.00;25.00;30.60;45.30;;;;;;5033603;28;8738;-68
2022/06/30 06:33:15;;;;;;;;;16.33;16.00;30.70;45.40;;;;;;5033326;28;11499;-67
2022/06/30 06:35:41;;;;;;;;;23.67;23.67;30.70;45.10;;;;;;5033411;28;8770;-66
2022/06/30 06:38:06;;;;;;;;;24.67;23.00;31.10;44.60;;;;;;5033341;28;8794;-66
2022/06/30 06:40:32;;;;;;;;;23.33;23.00;31.20;44.10;;;;;;5033125;28;8762;-66
2022/06/30 06:42:58;;;;;;;;;27.00;25.33;31.40;44.00;;;;;;5033568;28;8802;-67
2022/06/30 06:45:23;;;;;;;;;25.33;23.33;31.40;44.00;;;;;;5033558;28;8778;-66
2022/06/30 06:47:49;;;;;;;;;24.00;24.00;31.30;43.90;;;;;;5033280;28;8852;-69
2022/06/30 06:50:15;;;;;;;;;25.00;21.67;31.50;42.90;;;;;;5034775;28;8806;-68
2022/06/30 06:52:41;;;;;;;;;23.67;22.00;31.30;43.20;;;;;;5059883;28;8795;-68
2022/06/30 06:55:07;;;;;;;;;23.00;21.33;30.90;44.40;;;;;;5045568;28;8765;-69
2022/06/30 06:57:35;;;;;;;;;26.33;26.33;31.10;44.30;;;;;;5034285;28;8794;-69
2022/06/30 07:00:07;;;;;;;;;24.33;23.33;31.40;43.50;;;;;;5037610;28;11493;-69
2022/06/30 07:02:34;;;;;;;;;24.00;24.00;31.80;42.60;;;;;;5038377;28;11551;-71
2022/06/30 07:04:59;;;;;;;;;23.00;23.00;32.00;42.00;;;;;;5053694;28;11512;-69
2022/06/30 07:07:26;;;;;;;;;25.67;23.00;31.60;43.00;;;;;;5063900;28;11454;-68
2022/06/30 07:09:51;;;;;;;;;21.67;21.67;31.60;43.00;;;;;;5062433;28;8952;-69
2022/06/30 07:12:17;;;;;;;;;26.00;25.00;32.00;42.40;;;;;;5060944;28;11575;-68
2022/06/30 07:14:43;;;;;;;;;23.67;22.67;32.30;41.90;;;;;;5063386;28;8771;-69
2022/06/30 07:17:09;;;;;;;;;26.00;25.67;32.70;41.30;;;;;;5055473;28;8809;-68
2022/06/30 07:19:35;;;;;;;;;25.33;25.33;32.80;40.70;;;;;;5044072;28;11470;-69
2022/06/30 07:22:03;;;;;;;;;24.00;23.00;32.70;41.00;;;;;;5052536;28;11534;-69
2022/06/30 07:24:29;;;;;;;;;19.00;18.67;32.60;41.20;;;;;;5062511;28;8778;-68
2022/06/30 07:26:55;;;;;;;;;21.00;21.00;32.10;41.40;;;;;;5047311;28;11502;-68
2022/06/30 07:29:20;;;;;;;;;20.33;20.33;31.90;42.40;;;;;;5042854;28;8791;-69
2022/06/30 07:31:46;;;;;;;;;18.33;18.33;31.80;42.30;;;;;;5039575;28;8802;-69
2022/06/30 07:34:13;;;;;;;;;23.00;23.00;31.80;42.20;;;;;;5051634;28;8798;-68
2022/06/30 07:36:41;;;;;;;;;21.67;21.67;31.90;41.50;;;;;;5053889;28;9410;-70
2022/06/30 07:39:07;;;;;;;;;18.67;18.67;31.90;42.20;;;;;;5057333;28;8811;-69
2022/06/30 07:41:32;;;;;;;;;21.00;21.00;32.00;41.00;;;;;;5057142;28;11476;-69
2022/06/30 07:43:58;;;;;;;;;24.00;23.00;32.00;40.90;;;;;;5057426;28;8791;-69
2022/06/30 07:46:24;;;;;;;;;22.00;22.00;32.30;39.90;;;;;;5055550;28;9425;-69
2022/06/30 07:48:50;;;;;;;;;19.50;19.50;32.20;40.50;;;;;;5056202;28;8793;-68
2022/06/30 07:51:18;;;;;;;;;24.33;23.67;32.40;40.20;;;;;;5065294;28;8881;-69
2022/06/30 07:53:44;;;;;;;;;25.00;22.00;32.50;39.40;;;;;;5065255;28;8894;-69
2022/06/30 07:56:10;;;;;;;;;21.33;20.33;32.70;38.80;;;;;;5066568;28;11431;-69
2022/06/30 07:58:37;;;;;;;;;21.00;20.33;32.90;38.50;;;;;;5047124;28;11503;-69
2022/06/30 08:01:02;;;;;;;;;23.33;23.33;33.00;38.60;;;;;;5041411;28;8768;-68
2022/06/30 08:03:29;;;;;;;;;22.67;22.67;33.10;38.40;;;;;;5065821;28;11472;-69
2022/06/30 08:05:55;;;;;;;;;23.00;21.00;32.80;39.00;;;;;;5048345;28;8878;-70
2022/06/30 08:08:21;;;;;;;;;19.00;18.67;32.40;38.90;;;;;;5061229;28;11451;-70
2022/06/30 08:10:47;;;;;;;;;22.00;20.00;32.50;38.70;;;;;;5053448;28;11637;-71
2022/06/30 08:13:13;;;;;;;;;20.67;20.67;32.60;38.30;;;;;;5064737;28;8767;-70
2022/06/30 08:15:38;;;;;;;;;21.67;20.67;32.90;38.00;;;;;;5066228;28;8752;-70
2022/06/30 08:18:06;;;;;;;;;20.00;20.00;33.20;37.50;;;;;;5064212;28;8830;-71
2022/06/30 08:20:32;;;;;;;;;22.00;21.33;33.20;37.80;;;;;;5060015;28;8844;-71
2022/06/30 08:22:58;;;;;;;;;21.67;20.00;33.50;37.00;;;;;;5058246;28;11498;-69
2022/06/30 08:25:24;;;;;;;;;24.00;22.67;33.60;36.10;;;;;;5061491;28;11559;-72
2022/06/30 08:27:50;;;;;;;;;20.75;19.25;33.50;36.40;;;;;;5062675;28;8758;-69
2022/06/30 08:30:16;;;;;;;;;20.67;19.67;33.20;37.20;;;;;;5066015;28;11485;-69
2022/06/30 08:32:43;;;;;;;;;20.25;20.25;33.30;37.40;;;;;;5064869;28;8837;-69
2022/06/30 08:35:09;;;;;;;;;20.00;20.00;33.60;36.70;;;;;;5064573;28;8770;-69
2022/06/30 08:37:35;;;;;;;;;23.33;20.67;33.80;36.90;;;;;;5065985;28;11543;-70
2022/06/30 08:42:47;;;;;;;;;19.00;18.25;33.90;35.60;;;;;;5053756;28;8744;-70
2022/06/30 08:45:19;;;;;;;;;17.75;16.75;34.10;35.00;;;;;;5054813;28;11578;-69
2022/06/30 08:47:48;;;;;;;;;19.00;18.50;34.30;35.20;;;;;;5064085;28;11443;-69
2022/06/30 08:50:17;;;;;;;;;19.00;19.00;34.40;34.70;;;;;;5055825;28;11469;-69
2022/06/30 08:52:51;;;;;;;;;18.00;17.00;34.30;34.70;;;;;;5055238;28;11607;-69
2022/06/30 08:55:19;;;;;;;;;21.33;21.33;34.30;35.20;;;;;;5044669;28;11469;-69
2022/06/30 08:57:46;;;;;;;;;23.00;23.00;34.20;35.10;;;;;;5042261;28;11545;-71
2022/06/30 09:00:16;;;;;;;;;21.67;21.67;34.40;35.20;;;;;;5055545;28;11567;-73
2022/06/30 09:02:42;;;;;;;;;24.67;22.67;34.50;35.70;;;;;;5055860;28;11490;-69
2022/06/30 09:05:09;;;;;;;;;17.00;17.00;34.30;35.00;;;;;;5055673;28;11455;-69
2022/06/30 09:07:35;;;;;;;;;20.33;19.33;33.90;35.80;;;;;;5071198;28;11476;-69
2022/06/30 09:10:02;;;;;;;;;17.50;17.00;33.80;35.00;;;;;;5075413;28;11554;-68
2022/06/30 09:12:28;;;;;;;;;19.33;18.33;33.90;35.20;;;;;;5075683;28;12188;-69
2022/06/30 09:14:55;;;;;;;;;19.33;17.67;34.40;34.70;;;;;;5075238;28;11552;-69
2022/06/30 09:17:24;;;;;;;;;17.50;16.50;34.60;34.30;;;;;;5075605;28;11455;-69
2022/06/30 09:20:08;;;;;;;;;17.75;17.75;34.80;34.20;;;;;;5075225;28;11656;-69
2022/06/30 09:22:39;;;;;;;;;14.25;14.25;35.00;33.50;;;;;;5075488;28;11473;-68
2022/06/30 09:25:10;;;;;;;;;18.75;17.75;35.20;31.60;;;;;;5075153;28;11396;-68
2022/06/30 09:27:38;;;;;;;;;10.25;10.25;35.20;32.00;;;;;;5075140;28;11467;-71
2022/06/30 09:30:09;;;;;;;;;15.00;15.00;35.10;32.80;;;;;;5057913;28;11448;-65
2022/06/30 09:33:02;;;;;;;;;16.00;13.25;35.20;31.70;;;;;;5056661;28;11465;-65
2022/06/30 09:35:30;;;;;;;;;18.50;17.50;35.20;31.10;;;;;;5058230;28;11540;-65
2022/06/30 09:38:34;;;;;;;;;15.25;15.25;35.30;31.20;;;;;;5061953;28;11471;-68
2022/06/30 09:41:04;;;;;;;;;12.75;12.75;35.10;31.00;;;;;;5045864;28;11459;-67
2022/06/30 09:43:35;;;;;;;;;15.75;14.75;35.30;31.10;;;;;;5044585;28;11451;-66
2022/06/30 09:46:04;;;;;;;;;17.25;15.50;35.40;31.00;;;;;;5056420;28;11433;-69
2022/06/30 09:48:33;;;;;;;;;17.75;17.25;35.60;30.80;;;;;;5056714;28;11520;-67
2022/06/30 09:51:00;;;;;;;;;15.50;13.25;35.70;30.00;;;;;;5061102;28;11464;-67
2022/06/30 09:53:26;;;;;;;;;21.67;19.67;35.90;30.00;;;;;;5049718;28;12127;-64
2022/06/30 09:55:52;;;;;;;;;20.00;20.00;36.00;32.00;;;;;;5055904;28;11526;-65
2022/06/30 09:58:30;;;;;;;;;20.50;17.50;36.10;31.20;;;;;;5058365;28;11492;-65
2022/06/30 10:00:56;;;;;;;;;19.75;19.50;36.00;31.20;;;;;;5061786;28;8773;-64
2022/06/30 10:03:22;;;;;;;;;14.25;14.25;36.20;30.30;;;;;;5058451;28;11517;-65
2022/06/30 10:05:49;;;;;;;;;17.75;17.75;36.10;30.60;;;;;;5062346;28;11455;-64
2022/06/30 10:08:17;;;;;;;;;12.25;12.25;36.00;30.90;;;;;;5059240;28;8943;-67
2022/06/30 10:10:43;;;;;;;;;12.50;12.50;36.20;30.10;;;;;;5060994;28;11431;-65
2022/06/30 10:13:15;;;;;;;;;18.00;16.50;36.50;29.00;;;;;;5059048;28;11452;-65
2022/06/30 10:15:47;;;;;;;;;13.75;12.75;36.50;30.00;;;;;;5062507;28;11463;-65
2022/06/30 10:18:15;;;;;;;;;15.00;15.00;36.50;29.30;;;;;;5060432;28;11451;-65
2022/06/30 10:20:41;;;;;;;;;13.50;13.50;36.50;29.60;;;;;;5062217;28;11499;-65
2022/06/30 10:23:08;;;;;;;;;17.25;17.00;36.70;29.40;;;;;;5064103;28;11406;-66
2022/06/30 10:25:36;;;;;;;;;15.00;15.00;36.90;29.40;;;;;;5059406;28;8867;-65
2022/06/30 10:28:03;;;;;;;;;14.25;14.25;36.90;29.20;;;;;;5057711;28;11441;-66
2022/06/30 10:30:49;;;;;;;;;12.75;12.75;36.80;29.50;;;;;;5062818;28;11502;-65
2022/06/30 10:33:32;;;;;;;;;15.00;15.00;36.80;29.60;;;;;;5060788;28;11461;-66
2022/06/30 10:36:29;;;;;;;;;13.25;13.25;36.70;29.30;;;;;;5059434;28;11426;-66
2022/06/30 10:39:07;;;;;;;;;14.25;14.25;37.00;28.90;;;;;;5053915;28;11523;-66
2022/06/30 10:41:46;;;;;;;;;14.00;14.00;37.40;28.60;;;;;;5055757;28;11496;-66
2022/06/30 10:44:31;;;;;;;;;14.25;14.25;37.50;28.90;;;;;;5047905;28;11490;-67
2022/06/30 10:46:57;;;;;;;;;15.00;15.00;37.70;28.40;;;;;;5039376;28;11456;-66
2022/06/30 10:49:25;;;;;;;;;16.25;16.25;37.70;29.40;;;;;;5034945;28;12128;-68
2022/06/30 10:52:16;;;;;;;;;15.75;15.75;37.80;28.20;;;;;;5034539;28;8802;-66
2022/06/30 10:54:45;;;;;;;;;16.75;16.75;37.70;27.50;;;;;;5034113;28;11487;-66
2022/06/30 10:57:16;;;;;;;;;17.00;17.00;37.50;28.30;;;;;;5033949;28;11455;-66
2022/06/30 10:59:42;;;;;;;;;16.50;16.50;37.50;27.60;;;;;;5033883;28;11499;-67
2022/06/30 11:02:11;;;;;;;;;14.75;14.75;37.60;27.30;;;;;;5033995;28;11454;-66
2022/06/30 11:04:49;;;;;;;;;17.50;17.50;37.90;27.30;;;;;;5033879;28;11445;-67
2022/06/30 11:07:23;;;;;;;;;16.00;16.00;38.10;26.60;;;;;;5037534;28;11466;-68
2022/06/30 11:09:52;;;;;;;;;17.25;17.25;38.10;28.20;;;;;;5039187;28;12114;-66
2022/06/30 11:12:31;;;;;;;;;16.50;16.50;38.20;27.70;;;;;;5050456;28;12151;-66
2022/06/30 11:14:59;;;;;;;;;18.00;18.00;38.10;27.80;;;;;;5057327;28;11460;-67
2022/06/30 11:17:27;;;;;;;;;14.50;14.50;37.90;28.20;;;;;;5057422;28;11478;-66
2022/06/30 11:20:08;;;;;;;;;14.75;14.75;38.00;28.70;;;;;;5056985;28;11508;-67
2022/06/30 11:22:35;;;;;;;;;17.25;17.25;38.20;29.10;;;;;;5057307;28;11492;-67
2022/06/30 11:28:07;;;;;;;;;15.50;15.50;38.80;27.30;;;;;;5010767;28;11469;-66
2022/06/30 11:30:35;;;;;;;;;15.00;15.00;38.90;27.10;;;;;;5049727;28;11518;-67
2022/06/30 11:33:01;;;;;;;;;15.75;15.75;38.50;27.40;;;;;;5037605;28;11450;-66
2022/06/30 11:35:30;;;;;;;;;17.00;17.00;38.70;28.10;;;;;;5037285;28;11471;-66
2022/06/30 11:37:56;;;;;;;;;17.50;17.50;38.80;27.90;;;;;;5037126;28;11542;-68
2022/06/30 11:40:22;;;;;;;;;16.75;16.75;38.80;27.50;;;;;;5037426;28;12172;-66
2022/06/30 11:42:50;;;;;;;;;16.75;16.75;38.70;27.30;;;;;;5037203;28;12253;-67
2022/06/30 11:45:23;;;;;;;;;13.25;13.25;38.80;27.50;;;;;;5036986;28;11470;-66
2022/06/30 11:48:01;;;;;;;;;17.50;17.50;38.90;26.80;;;;;;5059198;28;11452;-65
2022/06/30 11:50:26;;;;;;;;;15.00;15.00;38.70;28.10;;;;;;5052393;28;11450;-66
2022/06/30 11:52:55;;;;;;;;;15.50;15.50;39.10;27.80;;;;;;5065550;28;12163;-67
2022/06/30 11:55:25;;;;;;;;;14.50;14.50;39.10;27.60;;;;;;5064719;28;8745;-68
2022/06/30 11:57:51;;;;;;;;;14.00;14.00;39.00;28.10;;;;;;5061722;28;11452;-65
2022/06/30 12:00:27;;;;;;;;;14.75;14.75;39.40;27.30;;;;;;5062573;28;11455;-63
2022/06/30 12:02:53;;;;;;;;;13.25;13.25;39.30;28.30;;;;;;5058414;28;8810;-65
2022/06/30 12:05:27;;;;;;;;;14.75;14.75;39.30;27.40;;;;;;5063251;28;11449;-66
2022/06/30 12:07:55;;;;;;;;;16.75;16.75;39.00;26.50;;;;;;5040815;28;8829;-70
2022/06/30 12:10:24;;;;;;;;;14.00;14.00;39.30;26.90;;;;;;5036580;28;11467;-65
2022/06/30 12:12:51;;;;;;;;;14.25;14.25;39.20;27.30;;;;;;5036375;28;11458;-65
2022/06/30 12:15:18;;;;;;;;;12.00;12.00;39.20;26.80;;;;;;5044908;28;11551;-66
2022/06/30 12:17:53;;;;;;;;;14.25;14.25;39.00;26.70;;;;;;5036303;28;11500;-73
2022/06/30 12:20:21;;;;;;;;;13.00;13.00;39.30;26.50;;;;;;5042232;28;11608;-66
2022/06/30 12:22:49;;;;;;;;;15.00;15.00;39.40;26.90;;;;;;5048802;28;11473;-68
2022/06/30 12:25:16;;;;;;;;;16.00;16.00;39.60;27.40;;;;;;5037751;28;11453;-67
2022/06/30 12:30:38;;;;;;;;;9.75;9.75;39.70;26.30;;;;;;5503532;22;11718;-65
2022/06/30 12:33:08;;;;;;;;;17.50;17.50;39.70;26.20;;;;;;5066063;28;11637;-68
2022/06/30 12:35:36;;;;;;;;;13.75;13.75;39.60;26.50;;;;;;5058743;28;11525;-65
2022/06/30 12:38:30;;;;;;;;;17.00;17.00;39.30;26.30;;;;;;5075739;28;11542;-66
2022/06/30 12:40:56;;;;;;;;;16.00;16.00;39.30;26.50;;;;;;5067258;28;11523;-68
2022/06/30 12:43:22;;;;;;;;;18.00;18.00;39.60;26.80;;;;;;5067919;28;11514;-64
2022/06/30 12:46:01;;;;;;;;;16.50;16.50;39.70;26.90;;;;;;5071536;28;12163;-72
2022/06/30 12:48:42;;;;;;;;;16.00;16.00;39.70;26.50;;;;;;5076573;28;9433;-74
2022/06/30 12:51:12;;;;;;;;;17.75;17.75;39.70;27.10;;;;;;5075883;28;11500;-69
2022/06/30 12:53:40;;;;;;;;;15.00;15.00;39.90;26.70;;;;;;5075333;28;12190;-76
2022/06/30 12:56:14;;;;;;;;;12.25;12.25;39.80;28.00;;;;;;5075809;28;11496;-73
2022/06/30 12:58:51;;;;;;;;;15.00;15.00;39.90;25.70;;;;;;5075768;28;11546;-72
2022/06/30 13:01:42;;;;;;;;;16.00;16.00;39.90;26.80;;;;;;5075938;28;11603;-71